AirNav   Everest Fuels
 
 1473 users online  

4AR2 Red Oak Airport
Cabot, Arkansas, USA

GOING TO CABOT?


FAA INFORMATION EFFECTIVE 25 FEBRUARY 2021

Location

FAA Identifier: 4AR2
Lat/Long: 34-54-36.0000N 092-00-24.0000W
34-54.600000N 092-00.400000W
34.9100000,-92.0066667
(estimated)
Elevation: 315 ft. / 96 m (estimated)
Variation: 02E (2000)
From city: 4 miles S of CABOT, AR
Time zone: UTC -6 (UTC -5 during Daylight Saving Time)
Zip code: 72023

Airport Operations

Airport use: Private use. Permission required prior to landing
Activation date: 06/2002
Control tower: no
ARTCC: MEMPHIS CENTER
FSS: JONESBORO FLIGHT SERVICE STATION
Attendance: UNATNDD
Segmented circle: no

Airport Communications

WX AWOS-3PT at ORK (13 nm W): 123.775 (501-906-6529)
WX ASOS at LIT (15 nm SW): PHONE 501-376-0247
WX AWOS-2 at 4M3 (16 nm SE): 119.275 (870-552-1445)

Nearby radio navigation aids

VOR radial/distance  VOR name  Freq  Var
LITr027/16.4LITTLE ROCK VORTAC113.9005E
PBFr350/40.0PINE BLUFF VOR/DME116.0004E

 
NDB name  Hdg/Dist  Freq  Var  ID
TONEYVILLE165/2.629001ETYV - -.-- ...-

Airport Services

Runway Information

Runway 9/27

Dimensions: 3700 x 100 ft. / 1128 x 30 m
Surface: turf
RUNWAY 9  RUNWAY 27
Traffic pattern: leftleft

Airport Ownership and Management from official FAA records

Ownership: Privately-owned
Owner: RED OAK PROPERTY OWNERS ASSOCIATION
160 OLIVER LANE
CABOT, AR 72023
Phone 501-843-9937
Manager: RED OAK OWNERS ASSOCIATION
160 OLIVER LANE
CABOT, AR 72023

Additional Remarks

FOR CD CTC LITTLE ROCK APCH 501-379-2908 OR LITTLE ROCK ATCT 501-379-2911.

Instrument Procedures

There are no published instrument procedures at 4AR2.

Some nearby airports with instrument procedures:

KLRF - Little Rock Air Force Base (7 nm W)
KORK - North Little Rock Municipal Airport (13 nm W)
KLIT - Bill and Hillary Clinton National Airport/Adams Field (15 nm SW)
4M3 - Carlisle Municipal Airport (16 nm SE)
KSRC - Searcy Municipal Airport (22 nm NE)
 
Loc | Ops | Rwys | IFR | FBO | Links
Com | Nav | Svcs | Stats | Notes
Area around 4AR2 (Red Oak Airport)
 
Road maps at: MapQuest Bing Google
 
Aerial photo
No photo
 
Sectional chart

 
Airport distance calculator
Flying to Red Oak Airport? Find the distance to fly.

From to 4AR2

Sunrise and sunset
Times for 08-Mar-2021
 Local
(UTC-6)
 Zulu
(UTC)
Morning civil twilight06:0412:04
Sunrise06:2912:29
Sunset18:0900:09
Evening civil twilight18:3400:34

Current date and time
Zulu (UTC)  08-Mar-2021 15:27:17
Local (UTC-6)  08-Mar-2021 09:27:17
 
METAR
KLRF 
7nm W 
081456Z AUTO 00000KT 10SM CLR 11/02 A3051 RMK AO2 SLP336 T01130018 52013
KORK 
13nm W 
081515Z AUTO 18009KT 10SM CLR 11/M01 A3050 RMK AO2
KLIT 
15nm SW 
081453Z 15005KT 10SM FEW250 11/02 A3052 RMK AO2 SLP336 T01110017 53012 $
TAF
KLRF 
7nm W 
080702Z 0807/0913 VRB03KT 9999 SKC QNH3044INS BECMG 0815/0816 18010G15KT 9999 SKC QNH3039INS BECMG 0821/0822 18006KT 9999 FEW250 QNH3036INS BECMG 0906/0907 18006KT 9999 SCT035 SCT200 QNH3033INS TX18/0820Z TNM01/0811Z
KLIT 
15nm SW 
081120Z 0812/0912 VRB04KT P6SM SCT250 FM081500 18010KT P6SM SCT250 FM090100 VRB04KT P6SM BKN250
NOTAMs
Click for the latest NOTAMs
NOTAMs are issued by the DoD/FAA and will open in a separate window not controlled by AirNav.

 

 
 

Would you like to see your business listed on this page?

 If your business provides an interesting product or service to pilots, flight crews, aircraft, or users of the Red Oak Airport, you should consider listing it here.  To start the listing process, click on the button below
 
Add a business
 

Other Pages about Red Oak Airport

Update a link
 
Copyright © AirNav, LLC. All rights reserved. Privacy Policy  Contact